sensor_id;sensor_type;location;lat;lon;timestamp;temperature;humidity
8736;DHT22;4404;49.308;12.178;2023-10-19T07:06:20;9.50;99.90
8736;DHT22;4404;49.308;12.178;2023-10-19T07:08:22;9.40;99.90
8736;DHT22;4404;49.308;12.178;2023-10-19T07:10:25;9.40;99.90
8736;DHT22;4404;49.308;12.178;2023-10-19T07:12:27;9.40;99.90
8736;DHT22;4404;49.308;12.178;2023-10-19T07:14:29;9.50;99.90
8736;DHT22;4404;49.308;12.178;2023-10-19T07:16:37;9.60;99.90
8736;DHT22;4404;49.308;12.178;2023-10-19T07:18:39;9.70;99.90
8736;DHT22;4404;49.308;12.178;2023-10-19T07:20:41;9.70;99.90
8736;DHT22;4404;49.308;12.178;2023-10-19T07:22:45;9.60;99.90
8736;DHT22;4404;49.308;12.178;2023-10-19T07:24:46;9.60;99.90
8736;DHT22;4404;49.308;12.178;2023-10-19T07:26:48;9.60;99.90
8736;DHT22;4404;49.308;12.178;2023-10-19T07:29:03;9.60;99.90
8736;DHT22;4404;49.308;12.178;2023-10-19T07:31:06;9.60;99.90
8736;DHT22;4404;49.308;12.178;2023-10-19T07:33:14;9.60;99.90
8736;DHT22;4404;49.308;12.178;2023-10-19T07:35:18;9.80;99.90
8736;DHT22;4404;49.308;12.178;2023-10-19T07:37:21;9.80;99.90
8736;DHT22;4404;49.308;12.178;2023-10-19T07:39:24;9.70;99.90
8736;DHT22;4404;49.308;12.178;2023-10-19T07:41:29;9.70;99.90
8736;DHT22;4404;49.308;12.178;2023-10-19T07:43:36;9.80;99.90
8736;DHT22;4404;49.308;12.178;2023-10-19T07:45:39;9.80;99.90
8736;DHT22;4404;49.308;12.178;2023-10-19T07:47:43;9.80;99.90
8736;DHT22;4404;49.308;12.178;2023-10-19T07:49:45;9.80;99.90
8736;DHT22;4404;49.308;12.178;2023-10-19T07:51:48;9.80;99.90
8736;DHT22;4404;49.308;12.178;2023-10-19T07:53:51;9.80;99.90
8736;DHT22;4404;49.308;12.178;2023-10-19T07:55:55;9.80;99.90
8736;DHT22;4404;49.308;12.178;2023-10-19T07:57:58;9.80;99.90
8736;DHT22;4404;49.308;12.178;2023-10-19T08:00:03;9.80;99.90
8736;DHT22;4404;49.308;12.178;2023-10-19T08:02:05;9.80;99.90
8736;DHT22;4404;49.308;12.178;2023-10-19T08:04:09;9.80;99.90
8736;DHT22;4404;49.308;12.178;2023-10-19T08:06:12;9.80;99.90
8736;DHT22;4404;49.308;12.178;2023-10-19T08:08:14;9.80;99.90
8736;DHT22;4404;49.308;12.178;2023-10-19T08:10:19;9.80;99.90
8736;DHT22;4404;49.308;12.178;2023-10-19T08:12:23;9.90;99.90
8736;DHT22;4404;49.308;12.178;2023-10-19T08:14:27;9.90;99.90
8736;DHT22;4404;49.308;12.178;2023-10-19T08:16:31;9.80;99.90
8736;DHT22;4404;49.308;12.178;2023-10-19T08:18:33;9.90;99.90
8736;DHT22;4404;49.308;12.178;2023-10-19T08:20:36;9.90;99.90
8736;DHT22;4404;49.308;12.178;2023-10-19T08:22:38;10.00;99.90
8736;DHT22;4404;49.308;12.178;2023-10-19T08:24:41;10.10;99.90
8736;DHT22;4404;49.308;12.178;2023-10-19T08:26:44;10.20;99.90
8736;DHT22;4404;49.308;12.178;2023-10-19T08:28:48;10.30;99.90
8736;DHT22;4404;49.308;12.178;2023-10-19T08:30:50;10.30;99.90
8736;DHT22;4404;49.308;12.178;2023-10-19T08:32:58;10.50;99.90
8736;DHT22;4404;49.308;12.178;2023-10-19T08:35:27;10.60;99.90
8736;DHT22;4404;49.308;12.178;2023-10-19T08:37:29;10.50;99.90
8736;DHT22;4404;49.308;12.178;2023-10-19T08:39:32;10.60;99.90
8736;DHT22;4404;49.308;12.178;2023-10-19T08:41:36;10.70;99.90
8736;DHT22;4404;49.308;12.178;2023-10-19T08:43:39;10.80;99.90
8736;DHT22;4404;49.308;12.178;2023-10-19T08:45:43;11.10;99.90
8736;DHT22;4404;49.308;12.178;2023-10-19T08:47:52;11.00;99.90
8736;DHT22;4404;49.308;12.178;2023-10-19T08:49:58;11.10;99.90
8736;DHT22;4404;49.308;12.178;2023-10-19T08:52:00;11.10;99.90
8736;DHT22;4404;49.308;12.178;2023-10-19T08:54:05;11.10;99.90
8736;DHT22;4404;49.308;12.178;2023-10-19T08:56:09;11.20;99.90
8736;DHT22;4404;49.308;12.178;2023-10-19T08:58:14;11.20;99.90
8736;DHT22;4404;49.308;12.178;2023-10-19T09:00:17;11.30;99.90
8736;DHT22;4404;49.308;12.178;2023-10-19T09:02:21;11.40;99.90
8736;DHT22;4404;49.308;12.178;2023-10-19T09:04:24;11.40;99.90
8736;DHT22;4404;49.308;12.178;2023-10-19T09:06:26;11.40;99.90
8736;DHT22;4404;49.308;12.178;2023-10-19T09:08:29;11.40;99.90
8736;DHT22;4404;49.308;12.178;2023-10-19T09:10:38;11.40;99.90
8736;DHT22;4404;49.308;12.178;2023-10-19T09:12:40;11.30;99.90
8736;DHT22;4404;49.308;12.178;2023-10-19T09:14:43;11.50;99.90
8736;DHT22;4404;49.308;12.178;2023-10-19T09:16:55;11.70;99.90
8736;DHT22;4404;49.308;12.178;2023-10-19T09:18:59;11.80;99.90
8736;DHT22;4404;49.308;12.178;2023-10-19T09:21:01;11.90;99.90
8736;DHT22;4404;49.308;12.178;2023-10-19T09:23:07;12.00;99.90
8736;DHT22;4404;49.308;12.178;2023-10-19T09:25:09;12.10;99.90
8736;DHT22;4404;49.308;12.178;2023-10-19T09:27:11;12.10;99.90
8736;DHT22;4404;49.308;12.178;2023-10-19T09:29:17;12.30;99.90
8736;DHT22;4404;49.308;12.178;2023-10-19T09:31:20;12.30;99.90
8736;DHT22;4404;49.308;12.178;2023-10-19T09:33:25;12.50;99.90
8736;DHT22;4404;49.308;12.178;2023-10-19T09:35:31;12.50;99.90
8736;DHT22;4404;49.308;12.178;2023-10-19T09:37:34;12.40;99.90
8736;DHT22;4404;49.308;12.178;2023-10-19T09:39:36;12.70;99.90
8736;DHT22;4404;49.308;12.178;2023-10-19T09:41:39;12.90;99.90
8736;DHT22;4404;49.308;12.178;2023-10-19T09:43:43;13.10;99.90
8736;DHT22;4404;49.308;12.178;2023-10-19T09:45:49;13.30;99.90
8736;DHT22;4404;49.308;12.178;2023-10-19T09:47:53;13.30;99.90
8736;DHT22;4404;49.308;12.178;2023-10-19T09:49:57;13.40;99.90
8736;DHT22;4404;49.308;12.178;2023-10-19T09:52:00;13.50;99.90
8736;DHT22;4404;49.308;12.178;2023-10-19T09:54:11;13.50;99.90
8736;DHT22;4404;49.308;12.178;2023-10-19T09:56:20;13.30;99.90
8736;DHT22;4404;49.308;12.178;2023-10-19T09:58:26;13.30;99.90
8736;DHT22;4404;49.308;12.178;2023-10-19T10:00:29;13.40;99.90
8736;DHT22;4404;49.308;12.178;2023-10-19T10:02:32;13.40;99.90
8736;DHT22;4404;49.308;12.178;2023-10-19T10:04:34;13.40;99.90
8736;DHT22;4404;49.308;12.178;2023-10-19T10:06:58;13.50;99.90
8736;DHT22;4404;49.308;12.178;2023-10-19T10:09:06;13.50;99.90
8736;DHT22;4404;49.308;12.178;2023-10-19T10:11:20;13.50;99.90
8736;DHT22;4404;49.308;12.178;2023-10-19T10:13:36;13.50;99.90
8736;DHT22;4404;49.308;12.178;2023-10-19T10:15:41;13.60;99.90
8736;DHT22;4404;49.308;12.178;2023-10-19T10:17:49;13.60;99.90
8736;DHT22;4404;49.308;12.178;2023-10-19T10:19:55;13.50;99.90
8736;DHT22;4404;49.308;12.178;2023-10-19T10:22:09;13.50;99.90
8736;DHT22;4404;49.308;12.178;2023-10-19T10:24:14;13.40;99.90
8736;DHT22;4404;49.308;12.178;2023-10-19T10:26:17;13.50;99.90
8736;DHT22;4404;49.308;12.178;2023-10-19T10:28:20;13.70;99.90
8736;DHT22;4404;49.308;12.178;2023-10-19T10:30:24;13.80;99.90
8736;DHT22;4404;49.308;12.178;2023-10-19T10:32:43;13.90;99.90
8736;DHT22;4404;49.308;12.178;2023-10-19T10:34:45;13.80;99.90
8736;DHT22;4404;49.308;12.178;2023-10-19T10:36:59;13.80;99.90
8736;DHT22;4404;49.308;12.178;2023-10-19T10:39:04;13.60;99.90
8736;DHT22;4404;49.308;12.178;2023-10-19T10:41:07;13.50;99.90
8736;DHT22;4404;49.308;12.178;2023-10-19T10:43:13;13.50;99.90
8736;DHT22;4404;49.308;12.178;2023-10-19T10:45:19;13.60;99.90
8736;DHT22;4404;49.308;12.178;2023-10-19T10:47:22;13.60;99.90
8736;DHT22;4404;49.308;12.178;2023-10-19T10:49:25;13.60;99.90
8736;DHT22;4404;49.308;12.178;2023-10-19T10:51:28;13.60;99.90
8736;DHT22;4404;49.308;12.178;2023-10-19T10:53:30;13.60;99.90
8736;DHT22;4404;49.308;12.178;2023-10-19T10:55:32;13.60;99.90
8736;DHT22;4404;49.308;12.178;2023-10-19T10:57:34;13.40;99.90
8736;DHT22;4404;49.308;12.178;2023-10-19T10:59:37;13.30;99.90
8736;DHT22;4404;49.308;12.178;2023-10-19T11:01:39;13.20;99.90
8736;DHT22;4404;49.308;12.178;2023-10-19T11:03:43;13.30;99.90
8736;DHT22;4404;49.308;12.178;2023-10-19T11:05:45;13.30;99.90
8736;DHT22;4404;49.308;12.178;2023-10-19T11:08:03;13.20;99.90
8736;DHT22;4404;49.308;12.178;2023-10-19T11:10:07;13.30;99.90
8736;DHT22;4404;49.308;12.178;2023-10-19T11:12:12;13.40;99.90
8736;DHT22;4404;49.308;12.178;2023-10-19T11:14:15;13.50;99.90
8736;DHT22;4404;49.308;12.178;2023-10-19T11:16:22;13.30;99.90
8736;DHT22;4404;49.308;12.178;2023-10-19T11:18:32;13.30;99.90
8736;DHT22;4404;49.308;12.178;2023-10-19T11:20:35;13.40;99.90
8736;DHT22;4404;49.308;12.178;2023-10-19T11:22:47;13.50;99.90
8736;DHT22;4404;49.308;12.178;2023-10-19T11:24:49;13.50;99.90
8736;DHT22;4404;49.308;12.178;2023-10-19T11:26:52;13.50;99.90
8736;DHT22;4404;49.308;12.178;2023-10-19T11:29:01;13.60;99.90
8736;DHT22;4404;49.308;12.178;2023-10-19T11:31:15;13.50;99.90
8736;DHT22;4404;49.308;12.178;2023-10-19T11:33:20;13.40;99.90
8736;DHT22;4404;49.308;12.178;2023-10-19T11:35:27;13.40;99.90
8736;DHT22;4404;49.308;12.178;2023-10-19T11:37:32;13.40;99.90
8736;DHT22;4404;49.308;12.178;2023-10-19T11:39:47;13.50;99.90
8736;DHT22;4404;49.308;12.178;2023-10-19T11:41:50;13.50;99.90
8736;DHT22;4404;49.308;12.178;2023-10-19T11:43:53;13.50;99.90
8736;DHT22;4404;49.308;12.178;2023-10-19T11:45:57;13.50;99.90
8736;DHT22;4404;49.308;12.178;2023-10-19T11:47:59;13.50;99.90
8736;DHT22;4404;49.308;12.178;2023-10-19T11:50:02;13.50;99.90
8736;DHT22;4404;49.308;12.178;2023-10-19T11:52:05;13.50;99.90
8736;DHT22;4404;49.308;12.178;2023-10-19T11:54:07;13.50;99.90
8736;DHT22;4404;49.308;12.178;2023-10-19T11:56:12;13.50;99.90
8736;DHT22;4404;49.308;12.178;2023-10-19T11:58:16;13.50;99.90
8736;DHT22;4404;49.308;12.178;2023-10-19T12:00:18;13.50;99.90
8736;DHT22;4404;49.308;12.178;2023-10-19T12:02:26;13.50;99.90
8736;DHT22;4404;49.308;12.178;2023-10-19T12:04:28;13.50;99.90
8736;DHT22;4404;49.308;12.178;2023-10-19T12:06:32;13.50;99.90
8736;DHT22;4404;49.308;12.178;2023-10-19T12:08:35;13.60;99.90
8736;DHT22;4404;49.308;12.178;2023-10-19T12:10:37;13.70;99.90
8736;DHT22;4404;49.308;12.178;2023-10-19T12:12:39;13.80;99.90
8736;DHT22;4404;49.308;12.178;2023-10-19T12:14:41;13.80;99.90
8736;DHT22;4404;49.308;12.178;2023-10-19T12:16:44;13.80;99.90
8736;DHT22;4404;49.308;12.178;2023-10-19T12:18:47;13.80;99.90
8736;DHT22;4404;49.308;12.178;2023-10-19T12:20:49;13.70;99.90
8736;DHT22;4404;49.308;12.178;2023-10-19T12:22:54;13.70;99.90
8736;DHT22;4404;49.308;12.178;2023-10-19T12:24:56;13.70;99.90
8736;DHT22;4404;49.308;12.178;2023-10-19T12:26:59;13.70;99.90
8736;DHT22;4404;49.308;12.178;2023-10-19T12:29:02;13.70;99.90
8736;DHT22;4404;49.308;12.178;2023-10-19T12:31:07;13.70;99.90
8736;DHT22;4404;49.308;12.178;2023-10-19T12:33:10;13.80;99.90
8736;DHT22;4404;49.308;12.178;2023-10-19T12:35:16;13.80;99.90
8736;DHT22;4404;49.308;12.178;2023-10-19T12:37:20;13.80;99.90
8736;DHT22;4404;49.308;12.178;2023-10-19T12:39:22;13.90;99.90
8736;DHT22;4404;49.308;12.178;2023-10-19T12:41:43;13.80;99.90
8736;DHT22;4404;49.308;12.178;2023-10-19T12:43:47;14.00;99.90
8736;DHT22;4404;49.308;12.178;2023-10-19T12:45:49;13.90;99.90
8736;DHT22;4404;49.308;12.178;2023-10-19T12:47:55;14.00;99.90
8736;DHT22;4404;49.308;12.178;2023-10-19T12:49:56;14.00;99.90
8736;DHT22;4404;49.308;12.178;2023-10-19T12:51:59;14.00;99.90
8736;DHT22;4404;49.308;12.178;2023-10-19T12:54:04;14.00;99.90
8736;DHT22;4404;49.308;12.178;2023-10-19T12:56:10;13.90;99.90
8736;DHT22;4404;49.308;12.178;2023-10-19T12:58:12;13.90;99.90
8736;DHT22;4404;49.308;12.178;2023-10-19T13:00:19;13.90;99.90
8736;DHT22;4404;49.308;12.178;2023-10-19T13:02:30;13.90;99.90
8736;DHT22;4404;49.308;12.178;2023-10-19T13:04:32;13.90;99.90
8736;DHT22;4404;49.308;12.178;2023-10-19T13:06:34;14.00;99.90
8736;DHT22;4404;49.308;12.178;2023-10-19T13:08:40;14.00;99.90
8736;DHT22;4404;49.308;12.178;2023-10-19T13:10:43;14.10;99.90
8736;DHT22;4404;49.308;12.178;2023-10-19T13:12:49;14.10;99.90
8736;DHT22;4404;49.308;12.178;2023-10-19T13:14:51;14.00;99.90
8736;DHT22;4404;49.308;12.178;2023-10-19T13:16:54;14.10;99.90
8736;DHT22;4404;49.308;12.178;2023-10-19T13:18:56;14.10;99.90
8736;DHT22;4404;49.308;12.178;2023-10-19T13:20:58;14.10;99.90
8736;DHT22;4404;49.308;12.178;2023-10-19T13:23:05;14.10;99.90
8736;DHT22;4404;49.308;12.178;2023-10-19T13:25:13;14.10;99.90
8736;DHT22;4404;49.308;12.178;2023-10-19T13:27:17;14.10;99.90
8736;DHT22;4404;49.308;12.178;2023-10-19T13:29:22;14.00;99.90
8736;DHT22;4404;49.308;12.178;2023-10-19T13:31:30;14.00;99.90
8736;DHT22;4404;49.308;12.178;2023-10-19T13:33:32;14.00;99.90
8736;DHT22;4404;49.308;12.178;2023-10-19T13:35:38;14.10;99.90
8736;DHT22;4404;49.308;12.178;2023-10-19T13:37:39;14.00;99.90
8736;DHT22;4404;49.308;12.178;2023-10-19T13:39:44;14.10;99.90
8736;DHT22;4404;49.308;12.178;2023-10-19T13:41:48;14.00;99.90
8736;DHT22;4404;49.308;12.178;2023-10-19T13:43:50;14.10;99.90
8736;DHT22;4404;49.308;12.178;2023-10-19T13:45:53;14.10;99.90
8736;DHT22;4404;49.308;12.178;2023-10-19T13:47:55;14.10;99.90
8736;DHT22;4404;49.308;12.178;2023-10-19T13:49:57;14.10;99.90
8736;DHT22;4404;49.308;12.178;2023-10-19T13:51:59;14.20;99.90
8736;DHT22;4404;49.308;12.178;2023-10-19T13:54:01;14.20;99.90
8736;DHT22;4404;49.308;12.178;2023-10-19T13:56:07;14.00;99.90
8736;DHT22;4404;49.308;12.178;2023-10-19T13:58:12;13.90;99.90
8736;DHT22;4404;49.308;12.178;2023-10-19T14:00:15;14.00;99.90
8736;DHT22;4404;49.308;12.178;2023-10-19T14:02:24;14.00;99.90
8736;DHT22;4404;49.308;12.178;2023-10-19T14:04:26;13.90;99.90
8736;DHT22;4404;49.308;12.178;2023-10-19T14:06:28;14.00;99.90
8736;DHT22;4404;49.308;12.178;2023-10-19T14:08:30;14.20;99.90
8736;DHT22;4404;49.308;12.178;2023-10-19T14:10:34;14.20;99.90
8736;DHT22;4404;49.308;12.178;2023-10-19T14:12:36;14.20;99.90
8736;DHT22;4404;49.308;12.178;2023-10-19T14:14:39;14.20;99.90
8736;DHT22;4404;49.308;12.178;2023-10-19T14:16:41;14.10;99.90
8736;DHT22;4404;49.308;12.178;2023-10-19T14:18:45;13.90;99.90
8736;DHT22;4404;49.308;12.178;2023-10-19T14:20:47;13.80;99.90
8736;DHT22;4404;49.308;12.178;2023-10-19T14:22:49;13.80;99.90
8736;DHT22;4404;49.308;12.178;2023-10-19T14:24:54;13.90;99.90
8736;DHT22;4404;49.308;12.178;2023-10-19T14:26:56;14.00;99.90
8736;DHT22;4404;49.308;12.178;2023-10-19T14:28:59;14.00;99.90
8736;DHT22;4404;49.308;12.178;2023-10-19T14:31:04;14.00;99.90
8736;DHT22;4404;49.308;12.178;2023-10-19T14:33:08;14.00;99.90
8736;DHT22;4404;49.308;12.178;2023-10-19T14:35:11;13.90;99.90
8736;DHT22;4404;49.308;12.178;2023-10-19T14:37:15;13.80;99.90
8736;DHT22;4404;49.308;12.178;2023-10-19T14:39:18;13.80;99.90
8736;DHT22;4404;49.308;12.178;2023-10-19T14:41:20;13.60;99.90
8736;DHT22;4404;49.308;12.178;2023-10-19T14:43:23;13.60;99.90
8736;DHT22;4404;49.308;12.178;2023-10-19T14:45:27;13.70;99.90
8736;DHT22;4404;49.308;12.178;2023-10-19T14:47:32;13.80;99.90
8736;DHT22;4404;49.308;12.178;2023-10-19T14:49:33;13.60;99.90
8736;DHT22;4404;49.308;12.178;2023-10-19T14:51:37;13.70;99.90
8736;DHT22;4404;49.308;12.178;2023-10-19T14:53:39;13.80;99.90
8736;DHT22;4404;49.308;12.178;2023-10-19T14:55:43;13.80;99.90
8736;DHT22;4404;49.308;12.178;2023-10-19T14:57:48;13.90;99.90
8736;DHT22;4404;49.308;12.178;2023-10-19T14:59:53;13.70;99.90
8736;DHT22;4404;49.308;12.178;2023-10-19T15:01:55;13.70;99.90
8736;DHT22;4404;49.308;12.178;2023-10-19T15:03:58;13.80;99.90
8736;DHT22;4404;49.308;12.178;2023-10-19T15:06:01;13.90;99.90
8736;DHT22;4404;49.308;12.178;2023-10-19T15:08:05;13.90;99.90
8736;DHT22;4404;49.308;12.178;2023-10-19T15:10:09;14.00;99.90
8736;DHT22;4404;49.308;12.178;2023-10-19T15:12:12;14.00;99.90
8736;DHT22;4404;49.308;12.178;2023-10-19T15:14:14;14.00;99.90
8736;DHT22;4404;49.308;12.178;2023-10-19T15:16:16;14.00;99.90
8736;DHT22;4404;49.308;12.178;2023-10-19T15:18:18;14.00;99.90
8736;DHT22;4404;49.308;12.178;2023-10-19T15:20:24;14.00;99.90
8736;DHT22;4404;49.308;12.178;2023-10-19T15:22:27;14.00;99.90
8736;DHT22;4404;49.308;12.178;2023-10-19T15:24:28;13.90;99.90
8736;DHT22;4404;49.308;12.178;2023-10-19T15:26:31;13.80;99.90
8736;DHT22;4404;49.308;12.178;2023-10-19T15:28:34;13.70;99.90
8736;DHT22;4404;49.308;12.178;2023-10-19T15:30:36;13.50;99.90
8736;DHT22;4404;49.308;12.178;2023-10-19T15:32:38;13.50;99.90
8736;DHT22;4404;49.308;12.178;2023-10-19T15:34:42;13.40;99.90
8736;DHT22;4404;49.308;12.178;2023-10-19T15:36:45;13.20;99.90
8736;DHT22;4404;49.308;12.178;2023-10-19T15:38:47;13.30;99.90
8736;DHT22;4404;49.308;12.178;2023-10-19T15:40:51;13.40;99.90
8736;DHT22;4404;49.308;12.178;2023-10-19T15:42:53;13.50;99.90
8736;DHT22;4404;49.308;12.178;2023-10-19T15:44:56;13.50;99.90
8736;DHT22;4404;49.308;12.178;2023-10-19T15:46:58;13.30;99.90
8736;DHT22;4404;49.308;12.178;2023-10-19T15:49:00;13.20;99.90
8736;DHT22;4404;49.308;12.178;2023-10-19T15:51:04;13.00;99.90
8736;DHT22;4404;49.308;12.178;2023-10-19T15:53:08;13.10;99.90
8736;DHT22;4404;49.308;12.178;2023-10-19T15:55:11;13.20;99.90
8736;DHT22;4404;49.308;12.178;2023-10-19T15:57:13;13.10;99.90
8736;DHT22;4404;49.308;12.178;2023-10-19T15:59:15;13.00;99.90
8736;DHT22;4404;49.308;12.178;2023-10-19T16:01:17;13.00;99.90
8736;DHT22;4404;49.308;12.178;2023-10-19T16:03:20;13.00;99.90
8736;DHT22;4404;49.308;12.178;2023-10-19T16:07:39;13.10;99.90
8736;DHT22;4404;49.308;12.178;2023-10-19T16:09:43;12.90;99.90
8736;DHT22;4404;49.308;12.178;2023-10-19T16:11:44;13.10;99.90
8736;DHT22;4404;49.308;12.178;2023-10-19T16:13:48;13.00;99.90
8736;DHT22;4404;49.308;12.178;2023-10-19T16:15:50;12.90;99.90
8736;DHT22;4404;49.308;12.178;2023-10-19T16:17:53;12.90;99.90
8736;DHT22;4404;49.308;12.178;2023-10-19T16:19:55;12.90;99.90
8736;DHT22;4404;49.308;12.178;2023-10-19T16:21:59;12.90;99.90
8736;DHT22;4404;49.308;12.178;2023-10-19T16:24:01;12.90;99.90
8736;DHT22;4404;49.308;12.178;2023-10-19T16:26:04;13.00;99.90
8736;DHT22;4404;49.308;12.178;2023-10-19T16:28:06;13.00;99.90
8736;DHT22;4404;49.308;12.178;2023-10-19T16:30:09;13.00;99.90
8736;DHT22;4404;49.308;12.178;2023-10-19T16:32:13;12.90;99.90
8736;DHT22;4404;49.308;12.178;2023-10-19T16:34:16;12.80;99.90
8736;DHT22;4404;49.308;12.178;2023-10-19T16:36:19;12.60;99.90
8736;DHT22;4404;49.308;12.178;2023-10-19T16:38:21;12.60;99.90
8736;DHT22;4404;49.308;12.178;2023-10-19T16:40:25;12.70;99.90
8736;DHT22;4404;49.308;12.178;2023-10-19T16:42:30;12.60;99.90
8736;DHT22;4404;49.308;12.178;2023-10-19T16:44:32;12.60;99.90
8736;DHT22;4404;49.308;12.178;2023-10-19T16:46:34;12.60;99.90
8736;DHT22;4404;49.308;12.178;2023-10-19T16:48:37;12.50;99.90
8736;DHT22;4404;49.308;12.178;2023-10-19T16:50:39;12.50;99.90
8736;DHT22;4404;49.308;12.178;2023-10-19T16:52:41;12.50;99.90
8736;DHT22;4404;49.308;12.178;2023-10-19T16:54:44;12.50;99.90
8736;DHT22;4404;49.308;12.178;2023-10-19T16:56:46;12.50;99.90
8736;DHT22;4404;49.308;12.178;2023-10-19T16:58:50;12.60;99.90
8736;DHT22;4404;49.308;12.178;2023-10-19T17:00:52;12.60;99.90
8736;DHT22;4404;49.308;12.178;2023-10-19T17:02:54;12.50;99.90
8736;DHT22;4404;49.308;12.178;2023-10-19T17:04:56;12.50;99.90
8736;DHT22;4404;49.308;12.178;2023-10-19T17:06:58;12.50;99.90
8736;DHT22;4404;49.308;12.178;2023-10-19T17:09:08;12.50;99.90
8736;DHT22;4404;49.308;12.178;2023-10-19T17:11:12;12.50;99.90
8736;DHT22;4404;49.308;12.178;2023-10-19T17:13:15;12.50;99.90
8736;DHT22;4404;49.308;12.178;2023-10-19T17:15:18;12.50;99.90
8736;DHT22;4404;49.308;12.178;2023-10-19T17:17:20;12.60;99.90
8736;DHT22;4404;49.308;12.178;2023-10-19T17:19:23;12.70;99.90
8736;DHT22;4404;49.308;12.178;2023-10-19T17:21:26;12.70;99.90
8736;DHT22;4404;49.308;12.178;2023-10-19T17:23:28;12.80;99.90
8736;DHT22;4404;49.308;12.178;2023-10-19T17:25:31;12.80;99.90
8736;DHT22;4404;49.308;12.178;2023-10-19T17:27:33;12.70;99.90
8736;DHT22;4404;49.308;12.178;2023-10-19T17:29:34;12.80;99.90
8736;DHT22;4404;49.308;12.178;2023-10-19T17:31:37;12.70;99.90
8736;DHT22;4404;49.308;12.178;2023-10-19T17:33:40;12.60;99.90
8736;DHT22;4404;49.308;12.178;2023-10-19T17:35:42;12.50;99.90
8736;DHT22;4404;49.308;12.178;2023-10-19T17:37:43;12.50;99.90
8736;DHT22;4404;49.308;12.178;2023-10-19T17:39:45;12.40;99.90
8736;DHT22;4404;49.308;12.178;2023-10-19T17:41:47;12.40;99.90
8736;DHT22;4404;49.308;12.178;2023-10-19T17:43:49;12.40;99.90
8736;DHT22;4404;49.308;12.178;2023-10-19T17:45:50;12.50;99.90
8736;DHT22;4404;49.308;12.178;2023-10-19T17:47:53;12.50;99.90
8736;DHT22;4404;49.308;12.178;2023-10-19T17:49:55;12.50;99.90
8736;DHT22;4404;49.308;12.178;2023-10-19T17:51:56;12.50;99.90
8736;DHT22;4404;49.308;12.178;2023-10-19T17:53:58;12.70;99.90
8736;DHT22;4404;49.308;12.178;2023-10-19T17:56:01;12.80;99.90
8736;DHT22;4404;49.308;12.178;2023-10-19T17:58:04;12.80;99.90
8736;DHT22;4404;49.308;12.178;2023-10-19T18:00:07;12.60;99.90
8736;DHT22;4404;49.308;12.178;2023-10-19T18:02:12;12.60;99.90
8736;DHT22;4404;49.308;12.178;2023-10-19T18:04:16;12.60;99.90
8736;DHT22;4404;49.308;12.178;2023-10-19T18:06:18;12.50;99.90
8736;DHT22;4404;49.308;12.178;2023-10-19T18:08:20;12.50;99.90
8736;DHT22;4404;49.308;12.178;2023-10-19T18:10:24;12.50;99.90
8736;DHT22;4404;49.308;12.178;2023-10-19T18:12:29;12.50;99.90
8736;DHT22;4404;49.308;12.178;2023-10-19T18:14:31;12.50;99.90
8736;DHT22;4404;49.308;12.178;2023-10-19T18:16:33;12.50;99.90
8736;DHT22;4404;49.308;12.178;2023-10-19T18:18:36;12.60;99.90
8736;DHT22;4404;49.308;12.178;2023-10-19T18:20:39;12.70;99.90
8736;DHT22;4404;49.308;12.178;2023-10-19T18:22:40;12.80;99.90
8736;DHT22;4404;49.308;12.178;2023-10-19T18:24:42;12.80;99.90
8736;DHT22;4404;49.308;12.178;2023-10-19T18:26:44;12.70;99.90
8736;DHT22;4404;49.308;12.178;2023-10-19T18:28:46;12.60;99.90
8736;DHT22;4404;49.308;12.178;2023-10-19T18:30:54;12.60;99.90
8736;DHT22;4404;49.308;12.178;2023-10-19T18:32:57;12.60;99.90
8736;DHT22;4404;49.308;12.178;2023-10-19T18:35:00;12.70;99.90
8736;DHT22;4404;49.308;12.178;2023-10-19T18:37:03;12.60;99.90
8736;DHT22;4404;49.308;12.178;2023-10-19T18:39:07;12.70;99.90
8736;DHT22;4404;49.308;12.178;2023-10-19T18:41:09;12.70;99.90
8736;DHT22;4404;49.308;12.178;2023-10-19T18:43:12;12.70;99.90
8736;DHT22;4404;49.308;12.178;2023-10-19T18:45:14;12.70;99.90
8736;DHT22;4404;49.308;12.178;2023-10-19T18:47:16;12.70;99.90
8736;DHT22;4404;49.308;12.178;2023-10-19T18:49:18;12.70;99.90
8736;DHT22;4404;49.308;12.178;2023-10-19T18:51:20;12.70;99.90
8736;DHT22;4404;49.308;12.178;2023-10-19T18:53:24;12.70;99.90
8736;DHT22;4404;49.308;12.178;2023-10-19T18:55:26;12.60;99.90
8736;DHT22;4404;49.308;12.178;2023-10-19T18:57:28;12.50;99.90
8736;DHT22;4404;49.308;12.178;2023-10-19T18:59:30;12.60;99.90
8736;DHT22;4404;49.308;12.178;2023-10-19T19:01:32;12.60;99.90
8736;DHT22;4404;49.308;12.178;2023-10-19T19:03:35;12.70;99.90
8736;DHT22;4404;49.308;12.178;2023-10-19T19:05:38;12.80;99.90
8736;DHT22;4404;49.308;12.178;2023-10-19T19:07:41;12.80;99.90
8736;DHT22;4404;49.308;12.178;2023-10-19T19:09:44;12.80;99.90
8736;DHT22;4404;49.308;12.178;2023-10-19T19:11:46;12.70;99.90
8736;DHT22;4404;49.308;12.178;2023-10-19T19:13:48;12.60;99.90
8736;DHT22;4404;49.308;12.178;2023-10-19T19:15:51;12.60;99.90
8736;DHT22;4404;49.308;12.178;2023-10-19T19:17:57;12.60;99.90
8736;DHT22;4404;49.308;12.178;2023-10-19T19:19:59;12.50;99.90
8736;DHT22;4404;49.308;12.178;2023-10-19T19:22:02;12.50;99.90
8736;DHT22;4404;49.308;12.178;2023-10-19T19:24:05;12.70;99.90
8736;DHT22;4404;49.308;12.178;2023-10-19T19:26:09;12.70;99.90
8736;DHT22;4404;49.308;12.178;2023-10-19T19:28:11;12.70;99.90
8736;DHT22;4404;49.308;12.178;2023-10-19T19:30:13;12.50;99.90
8736;DHT22;4404;49.308;12.178;2023-10-19T19:32:15;12.40;99.90
8736;DHT22;4404;49.308;12.178;2023-10-19T19:34:17;12.30;99.90
8736;DHT22;4404;49.308;12.178;2023-10-19T19:36:19;12.30;99.90
8736;DHT22;4404;49.308;12.178;2023-10-19T19:38:21;12.30;99.90
8736;DHT22;4404;49.308;12.178;2023-10-19T19:40:24;12.30;99.90
8736;DHT22;4404;49.308;12.178;2023-10-19T19:42:28;12.20;99.90
8736;DHT22;4404;49.308;12.178;2023-10-19T19:44:30;12.20;99.90
8736;DHT22;4404;49.308;12.178;2023-10-19T19:46:32;12.10;99.90
8736;DHT22;4404;49.308;12.178;2023-10-19T19:48:34;12.10;99.90
8736;DHT22;4404;49.308;12.178;2023-10-19T19:50:36;12.10;99.90
8736;DHT22;4404;49.308;12.178;2023-10-19T19:52:42;12.10;99.90
8736;DHT22;4404;49.308;12.178;2023-10-19T19:54:44;12.00;99.90
8736;DHT22;4404;49.308;12.178;2023-10-19T19:56:46;12.10;99.90
8736;DHT22;4404;49.308;12.178;2023-10-19T19:58:51;12.10;99.90
8736;DHT22;4404;49.308;12.178;2023-10-19T20:00:53;12.10;99.90
